createdAt,value
2023-01-03T00:02:14.156Z,82.30
2023-01-03T00:04:45.814Z,82.20
2023-01-03T00:07:13.762Z,81.40
2023-01-03T00:09:40.343Z,80.50
2023-01-03T00:12:30.398Z,80.10
2023-01-03T00:14:57.206Z,79.10
2023-01-03T00:17:24.028Z,79.20
2023-01-03T00:19:50.410Z,78.70
2023-01-03T00:22:16.927Z,78.90
2023-01-03T00:24:47.876Z,79.40
2023-01-03T00:27:14.644Z,79.90
2023-01-03T00:29:41.065Z,80.70
2023-01-03T00:32:07.572Z,81.10
2023-01-03T00:34:33.979Z,81.40
2023-01-03T00:37:00.234Z,81.90
2023-01-03T00:39:26.667Z,82.20
2023-01-03T00:41:53.315Z,83.50
2023-01-03T00:44:19.562Z,84.40
2023-01-03T00:46:45.965Z,85.20
2023-01-03T00:49:12.522Z,85.70
2023-01-03T00:51:39.744Z,86.30
2023-01-03T00:54:06.814Z,87.30
2023-01-03T00:56:35.261Z,88.00
2023-01-03T00:59:01.750Z,89.60
2023-01-03T01:01:39.455Z,89.20
2023-01-03T01:04:20.260Z,89.90
2023-01-03T01:06:49.190Z,90.30
2023-01-03T01:09:18.250Z,90.50
2023-01-03T01:11:44.581Z,90.70
2023-01-03T01:14:20.218Z,90.60
2023-01-03T01:16:54.749Z,90.80
2023-01-03T01:19:24.702Z,90.80
2023-01-03T01:21:51.283Z,90.90
2023-01-03T01:24:18.231Z,91.00
2023-01-03T01:26:46.191Z,91.00
2023-01-03T01:29:13.261Z,90.90
2023-01-03T01:31:40.582Z,91.10
2023-01-03T01:34:06.951Z,91.20
2023-01-03T01:36:37.644Z,91.40
2023-01-03T01:39:07.320Z,91.50
2023-01-03T01:41:53.057Z,91.60
2023-01-03T01:44:48.843Z,91.90
2023-01-03T01:47:54.050Z,92.10
2023-01-03T01:50:32.340Z,92.30
2023-01-03T01:53:13.670Z,92.50
2023-01-03T01:55:51.857Z,92.70
2023-01-03T01:58:18.025Z,92.60
2023-01-03T02:00:44.816Z,92.60
2023-01-03T02:03:12.220Z,92.70
2023-01-03T02:05:41.675Z,92.70
2023-01-03T02:08:08.297Z,92.60
2023-01-03T02:11:12.011Z,92.50
2023-01-03T02:16:56.274Z,92.50
2023-01-03T02:19:55.465Z,92.50
2023-01-03T02:22:46.591Z,92.70
2023-01-03T02:32:45.008Z,93.00
2023-01-03T02:35:22.307Z,92.90
2023-01-03T02:38:03.742Z,92.90
2023-01-03T02:40:36.903Z,92.80
2023-01-03T02:43:22.828Z,92.90
2023-01-03T02:46:23.351Z,92.90
2023-01-03T02:49:05.441Z,93.30
2023-01-03T02:51:34.761Z,93.50
2023-01-03T02:54:01.548Z,93.40
2023-01-03T02:57:31.168Z,93.40
2023-01-03T03:00:09.759Z,93.20
2023-01-03T03:02:36.364Z,93.20
2023-01-03T03:05:06.302Z,93.20
2023-01-03T03:07:38.839Z,93.20
2023-01-03T03:10:25.071Z,93.20
2023-01-03T03:13:13.448Z,93.30
2023-01-03T03:16:05.825Z,93.10
2023-01-03T03:20:42.818Z,92.90
2023-01-03T03:23:28.587Z,92.50
2023-01-03T03:25:56.846Z,92.30
2023-01-03T03:28:34.822Z,92.20
2023-01-03T03:31:33.492Z,92.20
2023-01-03T03:34:20.831Z,92.10
2023-01-03T03:37:04.792Z,92.10
2023-01-03T03:39:50.352Z,92.70
2023-01-03T03:43:27.952Z,92.00
2023-01-03T03:46:21.417Z,92.20
2023-01-03T03:49:19.096Z,92.40
2023-01-03T03:51:45.618Z,92.40
2023-01-03T03:54:12.825Z,92.40
2023-01-03T03:56:38.972Z,92.30
2023-01-03T03:59:06.439Z,92.20
2023-01-03T04:01:32.958Z,92.00
2023-01-03T04:04:02.664Z,91.90
2023-01-03T04:06:36.808Z,91.80
2023-01-03T04:09:03.085Z,91.80
2023-01-03T04:11:29.266Z,91.90
2023-01-03T04:13:55.760Z,91.80
2023-01-03T04:16:22.053Z,91.70
2023-01-03T04:18:48.231Z,92.10
2023-01-03T04:21:20.215Z,91.60
2023-01-03T04:23:47.152Z,91.60
2023-01-03T04:26:13.375Z,91.60
2023-01-03T04:28:39.561Z,91.60
2023-01-03T04:31:06.117Z,91.70
2023-01-03T04:33:32.371Z,91.70
2023-01-03T04:35:58.498Z,91.80
2023-01-03T04:38:24.847Z,91.90
2023-01-03T04:40:50.974Z,93.00
2023-01-03T04:43:35.563Z,92.10
2023-01-03T04:46:01.841Z,92.30
2023-01-03T04:48:28.069Z,92.40
2023-01-03T04:50:55.509Z,92.40
2023-01-03T04:53:22.221Z,92.70
2023-01-03T04:55:49.357Z,92.90
2023-01-03T04:58:15.644Z,93.00
2023-01-03T05:00:41.845Z,93.20
2023-01-03T05:03:08.574Z,93.20
2023-01-03T05:05:36.242Z,93.30
2023-01-03T05:08:10.462Z,93.30
2023-01-03T05:10:40.480Z,93.30
2023-01-03T05:13:07.446Z,93.10
2023-01-03T05:15:37.647Z,93.10
2023-01-03T05:18:04.218Z,93.00
2023-01-03T05:20:48.926Z,92.90
2023-01-03T05:23:34.559Z,92.70
2023-01-03T05:26:02.413Z,92.60
2023-01-03T05:28:28.584Z,92.50
2023-01-03T05:30:57.520Z,92.10
2023-01-03T05:33:23.897Z,92.40
2023-01-03T05:35:51.363Z,92.10
2023-01-03T05:38:18.160Z,92.20
2023-01-03T05:40:44.371Z,92.20
2023-01-03T05:43:10.807Z,92.00
2023-01-03T05:45:37.977Z,92.00
2023-01-03T05:48:07.092Z,91.80
2023-01-03T05:50:33.291Z,91.80
2023-01-03T05:52:59.429Z,91.80
2023-01-03T05:55:26.019Z,91.90
2023-01-03T05:57:52.387Z,91.70
2023-01-03T06:00:18.809Z,91.60
2023-01-03T06:02:45.032Z,91.60
2023-01-03T06:05:11.797Z,91.50
2023-01-03T06:07:37.962Z,91.40
2023-01-03T06:10:05.427Z,91.30
2023-01-03T06:12:31.634Z,91.20
2023-01-03T06:14:57.906Z,91.20
2023-01-03T06:17:42.935Z,91.10
2023-01-03T06:20:09.541Z,91.10
2023-01-03T06:22:35.708Z,91.00
2023-01-03T06:25:02.277Z,90.90
2023-01-03T06:27:29.388Z,90.80
2023-01-03T06:29:55.651Z,90.70
2023-01-03T06:32:21.775Z,90.70
2023-01-03T06:34:48.003Z,90.60
2023-01-03T06:37:14.126Z,90.70
2023-01-03T06:39:40.321Z,90.70
2023-01-03T06:42:24.731Z,90.80
2023-01-03T06:45:09.264Z,90.80
2023-01-03T06:47:56.816Z,90.90
2023-01-03T06:50:41.758Z,91.00
2023-01-03T06:53:18.435Z,90.90
2023-01-03T06:55:45.196Z,90.90
2023-01-03T06:58:11.917Z,91.00
2023-01-03T07:00:39.251Z,91.10
2023-01-03T07:03:10.854Z,91.10
2023-01-03T07:05:38.179Z,91.10
2023-01-03T07:08:04.372Z,90.50
2023-01-03T07:10:30.615Z,90.50
2023-01-03T07:13:18.808Z,90.60
2023-01-03T07:15:45.395Z,90.50
2023-01-03T07:18:11.746Z,90.40
2023-01-03T07:20:45.146Z,89.60
2023-01-03T07:23:11.764Z,90.70
2023-01-03T07:25:41.182Z,89.30
2023-01-03T07:28:11.364Z,89.00
2023-01-03T07:30:42.156Z,89.10
2023-01-03T07:33:08.859Z,88.80
2023-01-03T07:35:35.446Z,89.10
2023-01-03T07:38:02.023Z,89.70
2023-01-03T07:40:28.354Z,88.70
2023-01-03T07:43:13.231Z,89.00
2023-01-03T07:45:40.786Z,89.10
2023-01-03T07:48:07.397Z,90.00
2023-01-03T07:50:33.631Z,89.20
2023-01-03T07:52:59.883Z,89.50
2023-01-03T07:55:27.809Z,89.30
2023-01-03T07:57:55.545Z,89.40
2023-01-03T08:00:22.003Z,89.80
2023-01-03T08:02:48.395Z,89.80
2023-01-03T08:05:14.920Z,90.00
2023-01-03T08:07:42.283Z,90.10
2023-01-03T08:10:27.227Z,90.10
2023-01-03T08:13:12.300Z,90.10
2023-01-03T08:15:39.037Z,90.10
2023-01-03T08:18:05.371Z,90.00
2023-01-03T08:20:31.749Z,89.70
2023-01-03T08:22:59.649Z,89.40
2023-01-03T08:25:25.908Z,89.20
2023-01-03T08:27:53.154Z,88.80
2023-01-03T08:30:19.426Z,88.60
2023-01-03T08:32:45.801Z,88.50
2023-01-03T08:35:12.002Z,88.60
2023-01-03T08:37:38.251Z,88.00
2023-01-03T08:40:05.815Z,87.60
2023-01-03T08:42:32.361Z,87.20
2023-01-03T08:45:01.740Z,87.00
2023-01-03T08:47:29.099Z,86.80
2023-01-03T08:49:55.847Z,86.20
2023-01-03T08:52:22.057Z,85.90
2023-01-03T08:54:48.716Z,85.60
2023-01-03T08:57:16.256Z,85.70
2023-01-03T08:59:42.809Z,85.70
2023-01-03T09:02:10.729Z,85.50
2023-01-03T09:04:37.830Z,86.00
2023-01-03T09:07:04.683Z,86.20
2023-01-03T09:09:31.921Z,86.60
2023-01-03T09:11:58.610Z,86.40
2023-01-03T09:14:24.918Z,85.70
2023-01-03T09:16:51.360Z,85.60
2023-01-03T09:19:17.622Z,85.10
2023-01-03T09:21:43.961Z,84.70
2023-01-03T09:24:10.740Z,83.60
2023-01-03T09:26:37.135Z,84.00
2023-01-03T09:29:03.752Z,83.80
2023-01-03T09:31:34.852Z,82.80
2023-01-03T09:34:04.667Z,83.00
2023-01-03T09:36:32.063Z,82.50
2023-01-03T09:38:58.702Z,83.10
2023-01-03T09:41:26.088Z,83.30
2023-01-03T09:43:57.524Z,83.20
2023-01-03T09:46:25.136Z,83.40
2023-01-03T09:48:52.616Z,82.70
2023-01-03T09:51:43.658Z,81.80
2023-01-03T09:54:36.470Z,80.10
2023-01-03T09:57:28.180Z,79.40
2023-01-03T10:00:13.889Z,78.80
2023-01-03T10:03:29.799Z,80.00
2023-01-03T10:12:52.990Z,80.10
2023-01-03T10:15:54.435Z,81.50
2023-01-03T10:18:32.858Z,82.20
2023-01-03T10:21:12.608Z,81.60
2023-01-03T10:23:40.003Z,82.10
2023-01-03T10:26:12.863Z,81.50
2023-01-03T10:28:42.714Z,81.20
2023-01-03T10:37:58.899Z,80.80
2023-01-03T10:40:59.765Z,80.80
2023-01-03T10:44:00.715Z,80.90
2023-01-03T10:46:27.447Z,79.90
2023-01-03T10:52:11.893Z,79.10
2023-01-03T10:54:59.400Z,78.40
2023-01-03T10:57:44.105Z,78.20
2023-01-03T11:07:00.967Z,78.30
2023-01-03T11:09:50.630Z,77.50
2023-01-03T11:12:38.324Z,76.10
2023-01-03T11:15:38.371Z,75.60
2023-01-03T11:18:18.004Z,76.60
2023-01-03T11:21:11.866Z,77.00
2023-01-03T11:26:32.743Z,77.30
2023-01-03T11:29:40.592Z,76.80
2023-01-03T11:32:55.569Z,76.90
2023-01-03T11:36:59.294Z,76.50
2023-01-03T11:40:40.141Z,75.90
2023-01-03T11:43:29.449Z,72.40
2023-01-03T11:47:39.163Z,71.20
2023-01-03T11:52:04.784Z,69.50
2023-01-03T11:57:53.504Z,69.90
2023-01-03T12:06:51.075Z,71.70
2023-01-03T12:10:13.208Z,72.50
2023-01-03T12:13:26.880Z,71.40
2023-01-03T12:16:03.960Z,71.20
2023-01-03T12:18:47.394Z,71.40
2023-01-03T12:24:51.890Z,72.40
2023-01-03T12:27:32.160Z,72.40
2023-01-03T12:30:55.283Z,73.40
2023-01-03T12:34:24.354Z,73.60
2023-01-03T12:37:26.257Z,73.20
2023-01-03T12:39:55.855Z,73.30
2023-01-03T12:46:27.834Z,72.70
2023-01-03T12:52:13.026Z,72.40
2023-01-03T12:54:59.606Z,70.30
2023-01-03T12:58:03.296Z,70.10
2023-01-03T13:00:57.575Z,70.60
2023-01-03T13:03:38.666Z,70.80
2023-01-03T13:06:29.184Z,71.80
2023-01-03T13:08:59.611Z,72.10
2023-01-03T13:11:52.132Z,71.80
2023-01-03T13:14:23.700Z,72.90
2023-01-03T13:16:50.719Z,72.80
2023-01-03T13:20:19.085Z,73.50
2023-01-03T13:23:33.153Z,74.00
2023-01-03T13:26:32.445Z,74.80
2023-01-03T13:29:40.657Z,74.60
2023-01-03T13:32:26.733Z,74.90
2023-01-03T13:35:35.656Z,74.40
2023-01-03T13:38:26.001Z,74.50
2023-01-03T13:41:17.812Z,74.80
2023-01-03T13:43:49.053Z,75.50
2023-01-03T13:46:28.699Z,75.80
2023-01-03T13:49:02.591Z,76.60
2023-01-03T13:57:35.408Z,76.90
2023-01-03T14:00:04.351Z,78.20
2023-01-03T14:03:28.006Z,79.00
2023-01-03T14:11:42.974Z,80.00
2023-01-03T14:14:17.516Z,80.50
2023-01-03T14:16:51.603Z,81.20
2023-01-03T14:19:30.572Z,80.60
2023-01-03T14:22:28.208Z,81.20
2023-01-03T14:24:57.903Z,80.50
2023-01-03T14:27:31.874Z,79.60
2023-01-03T14:29:58.893Z,79.70
2023-01-03T14:32:34.348Z,79.70
2023-01-03T14:35:01.461Z,79.80
2023-01-03T14:37:27.793Z,79.80
2023-01-03T14:39:58.863Z,80.00
2023-01-03T14:42:25.146Z,80.90
2023-01-03T14:44:59.936Z,80.80
2023-01-03T14:47:45.370Z,80.30
2023-01-03T14:50:28.785Z,81.80
2023-01-03T14:52:59.540Z,81.90
2023-01-03T14:55:28.120Z,81.80
2023-01-03T14:57:54.427Z,81.50
2023-01-03T15:00:40.070Z,82.10
2023-01-03T15:03:09.219Z,82.80
2023-01-03T15:05:42.790Z,84.30
2023-01-03T15:08:42.734Z,84.60
2023-01-03T15:11:10.639Z,85.40
2023-01-03T15:13:53.165Z,86.30
2023-01-03T15:16:42.479Z,86.50
2023-01-03T15:19:24.331Z,86.90
2023-01-03T15:21:50.923Z,87.40
2023-01-03T15:24:21.772Z,87.70
2023-01-03T15:26:52.508Z,87.90
2023-01-03T15:29:20.838Z,88.00
2023-01-03T15:32:09.739Z,88.60
2023-01-03T15:34:40.785Z,88.40
2023-01-03T15:37:17.141Z,88.60
2023-01-03T15:39:50.915Z,89.10
2023-01-03T15:42:48.190Z,90.00
2023-01-03T15:45:23.963Z,90.30
2023-01-03T15:47:50.708Z,90.70
2023-01-03T15:50:20.469Z,91.30
2023-01-03T15:52:47.860Z,91.60
2023-01-03T15:55:15.082Z,91.90
2023-01-03T15:57:41.761Z,91.90
2023-01-03T16:00:10.382Z,92.20
2023-01-03T16:02:36.724Z,92.40
2023-01-03T16:05:03.753Z,92.70
2023-01-03T16:07:30.100Z,92.80
2023-01-03T16:09:56.340Z,93.10
2023-01-03T16:12:30.104Z,93.40
2023-01-03T16:14:57.130Z,94.20
2023-01-03T16:17:26.002Z,94.60
2023-01-03T16:19:52.967Z,94.90
2023-01-03T16:22:36.230Z,94.80
2023-01-03T16:25:04.382Z,94.80
2023-01-03T16:27:30.643Z,94.80
2023-01-03T16:29:58.191Z,94.60
2023-01-03T16:32:26.922Z,94.50
2023-01-03T16:35:00.791Z,94.80
2023-01-03T16:37:27.237Z,94.70
2023-01-03T16:39:54.403Z,94.90
2023-01-03T16:42:27.910Z,95.00
2023-01-03T16:44:55.867Z,94.50
2023-01-03T16:47:33.116Z,94.50
2023-01-03T16:50:08.046Z,94.70
2023-01-03T16:52:36.843Z,95.20
2023-01-03T16:55:15.509Z,95.80
2023-01-03T16:57:41.962Z,96.60
2023-01-03T17:00:22.977Z,96.80
2023-01-03T17:02:49.403Z,97.20
2023-01-03T17:05:16.585Z,97.30
2023-01-03T17:07:44.472Z,97.10
2023-01-03T17:10:34.611Z,96.90
2023-01-03T17:13:06.830Z,97.00
2023-01-03T17:15:36.685Z,97.00
2023-01-03T17:18:02.980Z,97.20
2023-01-03T17:20:29.221Z,97.20
2023-01-03T17:22:58.035Z,97.90
2023-01-03T17:25:24.470Z,98.40
2023-01-03T17:27:52.785Z,98.40
2023-01-03T17:30:21.434Z,98.60
2023-01-03T17:32:48.401Z,98.80
2023-01-03T17:35:15.373Z,98.80
2023-01-03T17:38:14.236Z,98.90
2023-01-03T17:40:53.160Z,99.20
2023-01-03T17:43:22.444Z,99.20
2023-01-03T17:46:07.801Z,99.20
2023-01-03T17:48:52.894Z,99.20
2023-01-03T17:51:19.922Z,99.30
2023-01-03T17:53:46.364Z,99.50
2023-01-03T17:56:14.359Z,99.90
2023-01-03T17:58:41.171Z,99.90
2023-01-03T18:01:08.100Z,99.90
2023-01-03T18:03:35.904Z,99.90
2023-01-03T18:06:09.912Z,99.90
2023-01-03T18:08:36.218Z,99.90
2023-01-03T18:11:02.779Z,99.90
2023-01-03T18:13:36.125Z,99.90
2023-01-03T18:16:02.972Z,99.90
2023-01-03T18:18:34.979Z,99.90
2023-01-03T18:21:01.745Z,99.90
2023-01-03T18:23:32.473Z,99.90
2023-01-03T18:26:03.184Z,99.90
2023-01-03T18:28:30.315Z,99.90
2023-01-03T18:30:57.450Z,99.90
2023-01-03T18:33:24.122Z,99.90
2023-01-03T18:35:52.648Z,99.90
2023-01-03T18:38:30.829Z,99.90
2023-01-03T18:41:04.066Z,99.90
2023-01-03T18:43:33.844Z,99.90
2023-01-03T18:46:00.762Z,99.90
2023-01-03T18:48:27.773Z,99.90
2023-01-03T18:50:59.034Z,99.90
2023-01-03T18:53:28.063Z,99.90
2023-01-03T18:55:55.209Z,99.90
2023-01-03T18:58:39.520Z,99.90
2023-01-03T19:01:05.940Z,99.90
2023-01-03T19:03:33.048Z,99.90
2023-01-03T19:06:00.341Z,99.90
2023-01-03T19:08:29.062Z,99.90
2023-01-03T19:11:05.146Z,99.90
2023-01-03T19:16:23.159Z,99.90
2023-01-03T19:18:49.753Z,99.90
2023-01-03T19:21:18.951Z,99.90
2023-01-03T19:23:48.518Z,99.90
2023-01-03T19:26:36.000Z,99.90
2023-01-03T19:29:04.216Z,99.90
2023-01-03T19:31:41.328Z,99.90
2023-01-03T19:34:17.925Z,99.90
2023-01-03T19:36:45.390Z,99.90
2023-01-03T19:39:12.638Z,99.90
2023-01-03T19:42:09.043Z,99.90
2023-01-03T19:44:35.920Z,99.90
2023-01-03T19:47:07.498Z,99.90
2023-01-03T19:49:36.037Z,99.90
2023-01-03T19:52:07.660Z,99.90
2023-01-03T19:54:36.424Z,99.90
2023-01-03T19:57:03.244Z,99.90
2023-01-03T19:59:32.121Z,99.90
2023-01-03T20:04:59.297Z,99.90
2023-01-03T20:07:31.330Z,99.90
2023-01-03T20:09:59.516Z,99.90
2023-01-03T20:12:27.327Z,99.90
2023-01-03T20:15:06.540Z,99.90
2023-01-03T20:17:34.437Z,99.90
2023-01-03T20:20:01.731Z,99.90
2023-01-03T20:25:32.646Z,99.90
2023-01-03T20:28:00.763Z,99.90
2023-01-03T20:30:29.039Z,99.90
2023-01-03T20:32:58.313Z,99.90
2023-01-03T20:38:27.104Z,99.90
2023-01-03T20:40:55.223Z,99.90
2023-01-03T20:43:21.855Z,99.90
2023-01-03T20:45:51.071Z,99.90
2023-01-03T20:48:22.982Z,99.90
2023-01-03T20:50:53.289Z,99.90
2023-01-03T20:53:22.055Z,99.90
2023-01-03T20:55:49.280Z,99.90
2023-01-03T20:58:17.166Z,99.90
2023-01-03T21:00:43.731Z,99.90
2023-01-03T21:03:11.717Z,99.90
2023-01-03T21:05:38.662Z,99.90
2023-01-03T21:08:24.075Z,99.90
2023-01-03T21:10:54.403Z,99.90
2023-01-03T21:13:20.823Z,99.90
2023-01-03T21:15:48.043Z,99.90
2023-01-03T21:18:14.502Z,99.90
2023-01-03T21:20:41.361Z,99.90
2023-01-03T21:23:18.849Z,99.90
2023-01-03T21:25:46.542Z,99.90
2023-01-03T21:28:14.703Z,99.90
2023-01-03T21:30:41.744Z,99.90
2023-01-03T21:33:17.156Z,99.90
2023-01-03T21:35:45.620Z,99.90
2023-01-03T21:38:11.864Z,99.90
2023-01-03T21:40:38.216Z,99.90
2023-01-03T21:43:05.424Z,99.90
2023-01-03T21:45:55.635Z,99.90
2023-01-03T21:48:22.693Z,99.90
2023-01-03T21:50:52.011Z,99.90
2023-01-03T21:53:22.339Z,99.90
2023-01-03T21:55:49.195Z,99.90
2023-01-03T21:58:19.162Z,99.90
2023-01-03T22:00:45.763Z,99.90
2023-01-03T22:03:34.405Z,99.90
2023-01-03T22:06:08.473Z,99.90
2023-01-03T22:08:34.953Z,99.90
2023-01-03T22:11:01.630Z,99.90
2023-01-03T22:13:27.933Z,99.90
2023-01-03T22:15:54.580Z,99.90
2023-01-03T22:18:21.037Z,99.90
2023-01-03T22:20:47.510Z,99.90
2023-01-03T22:23:18.626Z,99.90
2023-01-03T22:25:45.471Z,99.90
2023-01-03T22:28:11.986Z,99.90
2023-01-03T22:30:38.637Z,99.90
2023-01-03T22:35:32.831Z,99.90
2023-01-03T22:37:59.143Z,99.90
2023-01-03T22:40:25.458Z,99.90
2023-01-03T22:42:52.380Z,99.90
2023-01-03T22:45:19.444Z,99.90
2023-01-03T22:47:46.721Z,99.90
2023-01-03T22:50:14.585Z,99.90
2023-01-03T22:52:40.928Z,99.90
2023-01-03T22:55:07.988Z,99.90
2023-01-03T22:57:35.803Z,99.90
2023-01-03T23:00:03.017Z,99.90
2023-01-03T23:02:39.162Z,99.90
2023-01-03T23:05:08.855Z,99.90
2023-01-03T23:07:35.508Z,99.90
2023-01-03T23:10:01.936Z,99.90
2023-01-03T23:12:46.686Z,99.90
2023-01-03T23:15:13.023Z,99.90
2023-01-03T23:17:58.002Z,99.90
2023-01-03T23:20:34.151Z,99.90
2023-01-03T23:23:04.258Z,99.90
2023-01-03T23:25:30.780Z,99.90
2023-01-03T23:27:57.128Z,99.90
2023-01-03T23:30:23.940Z,99.90
2023-01-03T23:32:50.498Z,99.90
2023-01-03T23:35:18.397Z,99.90
2023-01-03T23:37:46.781Z,99.90
2023-01-03T23:40:13.373Z,99.90
2023-01-03T23:42:39.620Z,99.90
2023-01-03T23:45:07.709Z,99.90
2023-01-03T23:47:34.253Z,99.90
2023-01-03T23:50:00.546Z,99.90
2023-01-03T23:52:26.763Z,99.90
2023-01-03T23:54:59.578Z,99.90
2023-01-03T23:57:28.328Z,99.90
2023-01-03T23:59:54.553Z,99.90
